createdAt,value
2019-02-15T00:01:53.850Z,10.80
2019-02-15T00:04:26.081Z,12.73
2019-02-15T00:06:57.571Z,10.90
2019-02-15T00:09:29.439Z,10.87
2019-02-15T00:12:01.093Z,10.93
2019-02-15T00:14:50.278Z,11.20
2019-02-15T00:17:39.880Z,11.63
2019-02-15T00:20:16.998Z,11.70
2019-02-15T00:22:48.306Z,11.70
2019-02-15T00:25:19.925Z,13.33
2019-02-15T00:27:51.458Z,12.57
2019-02-15T00:30:23.012Z,14.70
2019-02-15T00:32:56.191Z,14.17
2019-02-15T00:35:27.697Z,14.90
2019-02-15T00:37:59.330Z,13.40
2019-02-15T00:40:30.652Z,14.90
2019-02-15T00:43:01.926Z,15.73
2019-02-15T00:45:38.400Z,15.50
2019-02-15T00:48:13.852Z,15.43
2019-02-15T00:51:09.866Z,14.67
2019-02-15T00:53:46.633Z,14.13
2019-02-15T00:56:27.603Z,15.07
2019-02-15T00:59:13.314Z,14.23
2019-02-15T01:02:09.503Z,13.20
2019-02-15T01:04:49.335Z,13.90
2019-02-15T01:07:39.747Z,14.17
2019-02-15T01:10:20.383Z,13.60
2019-02-15T01:12:56.028Z,13.33
2019-02-15T01:15:27.456Z,13.53
2019-02-15T01:17:58.693Z,14.10
2019-02-15T01:20:29.906Z,13.30
2019-02-15T01:23:01.589Z,15.40
2019-02-15T01:25:39.995Z,13.60
2019-02-15T01:28:23.323Z,13.63
2019-02-15T01:31:22.358Z,14.50
2019-02-15T01:34:06.764Z,14.40
2019-02-15T01:37:00.116Z,14.97
2019-02-15T01:39:48.613Z,14.87
2019-02-15T01:42:37.773Z,14.37
2019-02-15T01:45:22.528Z,13.97
2019-02-15T01:47:53.748Z,14.63
2019-02-15T01:50:25.455Z,15.00
2019-02-15T01:52:57.098Z,13.83
2019-02-15T01:55:28.428Z,13.40
2019-02-15T01:57:59.718Z,13.70
2019-02-15T02:00:33.882Z,13.27
2019-02-15T02:03:05.548Z,14.53
2019-02-15T02:05:36.851Z,15.30
2019-02-15T02:08:10.208Z,13.67
2019-02-15T02:10:41.780Z,13.40
2019-02-15T02:13:13.124Z,13.67
2019-02-15T02:15:44.644Z,14.20
2019-02-15T02:18:16.258Z,13.90
2019-02-15T02:20:47.665Z,14.17
2019-02-15T02:23:19.026Z,15.07
2019-02-15T02:25:52.547Z,15.23
2019-02-15T02:28:23.901Z,13.93
2019-02-15T02:30:55.908Z,15.67
2019-02-15T02:33:27.183Z,15.73
2019-02-15T02:35:58.481Z,14.40
2019-02-15T02:38:30.205Z,16.20
2019-02-15T02:41:01.608Z,14.83
2019-02-15T02:43:33.296Z,16.00
2019-02-15T02:46:04.662Z,15.63
2019-02-15T02:48:36.024Z,16.10
2019-02-15T02:51:07.285Z,15.77
2019-02-15T02:53:38.804Z,15.90
2019-02-15T02:56:10.343Z,15.80
2019-02-15T02:58:41.540Z,15.37
2019-02-15T03:01:12.933Z,15.10
2019-02-15T03:03:44.328Z,15.23
2019-02-15T03:06:15.878Z,14.67
2019-02-15T03:08:47.074Z,15.00
2019-02-15T03:11:18.776Z,15.57
2019-02-15T03:13:49.960Z,15.47
2019-02-15T03:16:21.207Z,14.87
2019-02-15T03:18:52.421Z,15.53
2019-02-15T03:21:23.788Z,15.80
2019-02-15T03:23:55.396Z,15.87
2019-02-15T03:26:26.566Z,16.47
2019-02-15T03:28:57.808Z,16.27
2019-02-15T03:31:29.355Z,16.00
2019-02-15T03:34:00.935Z,16.00
2019-02-15T03:36:58.627Z,15.93
2019-02-15T03:39:42.722Z,15.77
2019-02-15T03:42:15.086Z,15.63
2019-02-15T03:44:47.433Z,16.00
2019-02-15T03:47:25.347Z,14.80
2019-02-15T03:49:57.502Z,16.40
2019-02-15T03:52:28.750Z,15.97
2019-02-15T03:55:00.017Z,16.20
2019-02-15T03:57:31.705Z,15.43
2019-02-15T04:00:04.810Z,14.03
2019-02-15T04:02:36.325Z,14.70
2019-02-15T04:05:07.854Z,14.40
2019-02-15T04:07:39.157Z,14.17
2019-02-15T04:10:10.872Z,13.97
2019-02-15T04:12:42.044Z,14.63
2019-02-15T04:15:13.587Z,14.53
2019-02-15T04:17:44.863Z,14.53
2019-02-15T04:20:17.443Z,13.90
2019-02-15T04:22:48.937Z,14.00
2019-02-15T04:25:20.189Z,14.43
2019-02-15T04:27:51.620Z,13.53
2019-02-15T04:30:23.137Z,15.03
2019-02-15T04:32:54.465Z,14.17
2019-02-15T04:35:26.048Z,15.63
2019-02-15T04:37:57.328Z,16.03
2019-02-15T04:40:28.633Z,15.60
2019-02-15T04:42:59.910Z,17.57
2019-02-15T04:45:32.223Z,18.47
2019-02-15T04:48:03.454Z,17.30
2019-02-15T04:50:35.274Z,18.90
2019-02-15T04:53:06.829Z,18.23
2019-02-15T04:55:38.198Z,18.83
2019-02-15T04:58:09.409Z,19.70
2019-02-15T05:00:41.081Z,20.00
2019-02-15T05:03:12.389Z,20.23
2019-02-15T05:05:43.935Z,19.90
2019-02-15T05:08:15.091Z,20.13
2019-02-15T05:10:46.456Z,20.60
2019-02-15T05:13:17.625Z,21.53
2019-02-15T05:15:48.838Z,21.17
2019-02-15T05:18:20.014Z,21.33
2019-02-15T05:20:51.645Z,21.17
2019-02-15T05:23:22.889Z,21.83
2019-02-15T05:25:54.073Z,22.70
2019-02-15T05:28:25.458Z,22.13
2019-02-15T05:30:57.629Z,21.50
2019-02-15T05:33:29.158Z,20.67
2019-02-15T05:36:00.417Z,21.63
2019-02-15T05:38:31.608Z,22.37
2019-02-15T05:41:02.791Z,22.03
2019-02-15T05:43:34.327Z,20.80
2019-02-15T05:46:06.216Z,20.60
2019-02-15T05:48:37.778Z,23.07
2019-02-15T05:51:09.029Z,22.40
2019-02-15T05:53:40.238Z,23.40
2019-02-15T05:56:11.488Z,23.53
2019-02-15T05:58:43.062Z,23.07
2019-02-15T06:01:14.707Z,24.70
2019-02-15T06:03:45.920Z,24.90
2019-02-15T06:06:17.132Z,25.70
2019-02-15T06:08:48.298Z,24.43
2019-02-15T06:11:19.804Z,25.23
2019-02-15T06:13:52.988Z,24.30
2019-02-15T06:16:24.370Z,23.77
2019-02-15T06:18:55.647Z,23.03
2019-02-15T06:21:27.216Z,24.10
2019-02-15T06:23:58.532Z,25.30
2019-02-15T06:26:29.707Z,25.37
2019-02-15T06:29:00.877Z,22.60
2019-02-15T06:31:32.444Z,24.43
2019-02-15T06:34:03.774Z,26.73
2019-02-15T06:36:37.434Z,26.60
2019-02-15T06:39:10.069Z,27.73
2019-02-15T06:41:41.325Z,25.50
2019-02-15T06:44:14.021Z,26.27
2019-02-15T06:46:46.266Z,29.40
2019-02-15T06:49:17.494Z,28.63
2019-02-15T06:51:48.651Z,30.67
2019-02-15T06:54:20.915Z,31.53
2019-02-15T06:56:52.090Z,30.57
2019-02-15T06:59:42.185Z,30.93
2019-02-15T07:02:21.820Z,28.90
2019-02-15T07:05:11.904Z,29.80
2019-02-15T07:07:43.084Z,29.73
2019-02-15T07:10:16.264Z,28.87
2019-02-15T07:12:47.526Z,27.20
2019-02-15T07:15:19.129Z,28.20
2019-02-15T07:17:50.674Z,28.30
2019-02-15T07:20:22.298Z,28.63
2019-02-15T07:22:53.884Z,27.30
2019-02-15T07:25:25.452Z,30.90
2019-02-15T07:27:56.962Z,29.50
2019-02-15T07:30:28.150Z,26.43
2019-02-15T07:32:59.288Z,26.50
2019-02-15T07:35:30.743Z,24.50
2019-02-15T07:38:02.142Z,25.63
2019-02-15T07:40:33.300Z,25.10
2019-02-15T07:43:04.963Z,23.57
2019-02-15T07:45:42.595Z,23.80
2019-02-15T07:48:09.058Z,22.50
2019-02-15T07:50:40.215Z,23.03
2019-02-15T07:53:11.544Z,21.23
2019-02-15T07:55:42.767Z,21.03
2019-02-15T07:58:13.936Z,21.43
2019-02-15T08:00:45.415Z,22.60
2019-02-15T08:03:16.583Z,22.27
2019-02-15T08:05:48.703Z,24.00
2019-02-15T08:08:20.238Z,23.53
2019-02-15T08:10:51.723Z,24.77
2019-02-15T08:13:23.288Z,24.83
2019-02-15T08:15:54.661Z,28.23
2019-02-15T08:18:25.835Z,29.13
2019-02-15T08:20:57.003Z,29.50
2019-02-15T08:23:28.178Z,29.17
2019-02-15T08:25:59.705Z,28.93
2019-02-15T08:28:30.948Z,28.03
2019-02-15T08:31:02.433Z,26.80
2019-02-15T08:33:33.592Z,28.07
2019-02-15T08:36:04.823Z,27.47
2019-02-15T08:38:35.995Z,27.97
2019-02-15T08:41:07.138Z,27.23
2019-02-15T08:43:39.410Z,26.97
2019-02-15T08:46:10.637Z,27.60
2019-02-15T08:48:46.263Z,27.63
2019-02-15T08:51:15.236Z,26.67
2019-02-15T08:53:46.533Z,26.33
2019-02-15T08:56:17.982Z,25.77
2019-02-15T08:58:49.545Z,25.50
2019-02-15T09:01:20.879Z,26.30
2019-02-15T09:03:52.088Z,26.60
2019-02-15T09:06:23.487Z,25.97
2019-02-15T09:08:55.288Z,25.77
2019-02-15T09:11:26.547Z,25.83
2019-02-15T09:13:57.716Z,25.80
2019-02-15T09:16:29.292Z,25.80
2019-02-15T09:19:00.909Z,27.50
2019-02-15T09:21:32.145Z,26.77
2019-02-15T09:24:04.059Z,26.07
2019-02-15T09:26:35.646Z,26.20
2019-02-15T09:29:09.924Z,25.80
2019-02-15T09:31:41.229Z,24.30
2019-02-15T09:34:12.567Z,25.90
2019-02-15T09:36:44.139Z,24.97
2019-02-15T09:39:15.793Z,24.87
2019-02-15T09:41:47.044Z,27.23
2019-02-15T09:44:18.528Z,27.23
2019-02-15T09:46:49.791Z,25.93
2019-02-15T09:49:22.220Z,26.77
2019-02-15T09:51:55.557Z,27.43
2019-02-15T09:54:26.840Z,26.03
2019-02-15T09:56:58.328Z,26.90
2019-02-15T09:59:29.504Z,27.70
2019-02-15T10:02:00.848Z,28.13
2019-02-15T10:04:32.375Z,26.63
2019-02-15T10:07:03.681Z,26.83
2019-02-15T10:09:34.939Z,22.50
2019-02-15T10:12:06.282Z,22.93
2019-02-15T10:14:37.883Z,23.73
2019-02-15T10:17:09.161Z,23.10
2019-02-15T10:19:40.745Z,23.33
2019-02-15T10:22:11.909Z,23.00
2019-02-15T10:24:43.746Z,23.40
2019-02-15T10:27:15.111Z,23.83
2019-02-15T10:29:46.653Z,23.23
2019-02-15T10:32:18.167Z,23.53
2019-02-15T10:34:50.332Z,22.03
2019-02-15T10:37:21.885Z,23.23
2019-02-15T10:39:53.119Z,22.87
2019-02-15T10:42:26.004Z,21.27
2019-02-15T10:44:57.206Z,21.53
2019-02-15T10:47:28.645Z,21.70
2019-02-15T10:50:00.327Z,21.27
2019-02-15T10:52:31.489Z,21.80
2019-02-15T10:55:02.816Z,21.93
2019-02-15T10:57:34.092Z,22.43
2019-02-15T11:00:06.870Z,21.40
2019-02-15T11:02:39.159Z,22.37
2019-02-15T11:05:10.697Z,21.53
2019-02-15T11:07:41.931Z,20.30
2019-02-15T11:10:13.381Z,20.80
2019-02-15T11:12:44.805Z,20.83
2019-02-15T11:15:16.353Z,19.03
2019-02-15T11:17:48.129Z,19.60
2019-02-15T11:20:19.759Z,20.20
2019-02-15T11:22:51.166Z,17.30
2019-02-15T11:25:22.479Z,17.73
2019-02-15T11:27:53.908Z,18.07
2019-02-15T11:30:25.623Z,17.67
2019-02-15T11:32:57.012Z,16.87
2019-02-15T11:35:28.698Z,15.93
2019-02-15T11:37:59.903Z,16.03
2019-02-15T11:40:31.428Z,15.90
2019-02-15T11:43:02.763Z,14.83
2019-02-15T11:45:33.971Z,12.40
2019-02-15T11:48:05.283Z,12.77
2019-02-15T11:50:36.688Z,14.07
2019-02-15T11:53:08.387Z,13.03
2019-02-15T11:55:39.707Z,12.77
2019-02-15T11:58:11.388Z,13.47
2019-02-15T12:00:43.390Z,13.33
2019-02-15T12:03:14.660Z,13.40
2019-02-15T12:05:46.008Z,12.83
2019-02-15T12:08:17.988Z,12.57
2019-02-15T12:10:49.810Z,12.90
2019-02-15T12:13:21.442Z,14.23
2019-02-15T12:15:52.846Z,13.53
2019-02-15T12:18:24.177Z,12.77
2019-02-15T12:20:55.400Z,11.87
2019-02-15T12:23:28.485Z,11.87
2019-02-15T12:26:00.053Z,11.00
2019-02-15T12:28:31.522Z,11.17
2019-02-15T12:31:02.896Z,10.70
2019-02-15T12:33:34.286Z,9.50
2019-02-15T12:36:05.728Z,8.57
2019-02-15T12:38:37.127Z,9.60
2019-02-15T12:41:08.390Z,8.03
2019-02-15T12:43:40.123Z,8.20
2019-02-15T12:46:11.518Z,10.97
2019-02-15T12:48:42.842Z,7.20
2019-02-15T12:51:14.411Z,8.57
2019-02-15T12:53:45.748Z,6.43
2019-02-15T12:56:17.089Z,5.40
2019-02-15T12:58:48.522Z,6.73
2019-02-15T13:01:20.231Z,7.03
2019-02-15T13:03:51.692Z,6.87
2019-02-15T13:06:28.778Z,6.20
2019-02-15T13:08:55.870Z,7.77
2019-02-15T13:11:27.165Z,9.00
2019-02-15T13:13:58.568Z,9.90
2019-02-15T13:16:30.196Z,10.07
2019-02-15T13:19:01.588Z,9.73
2019-02-15T13:21:32.759Z,11.37
2019-02-15T13:24:04.237Z,11.60
2019-02-15T13:26:35.802Z,11.60
2019-02-15T13:29:07.062Z,12.77
2019-02-15T13:31:38.359Z,12.13
2019-02-15T13:34:09.592Z,12.60
2019-02-15T13:36:41.037Z,11.73
2019-02-15T13:39:12.511Z,12.10
2019-02-15T13:41:43.866Z,12.13
2019-02-15T13:44:15.018Z,12.50
2019-02-15T13:46:46.261Z,11.37
2019-02-15T13:49:17.486Z,11.93
2019-02-15T13:51:48.765Z,11.40
2019-02-15T13:54:20.018Z,12.23
2019-02-15T13:56:51.380Z,12.80
2019-02-15T13:59:22.780Z,11.93
2019-02-15T14:01:53.998Z,12.57
2019-02-15T14:04:26.070Z,14.10
2019-02-15T14:06:58.503Z,13.13
2019-02-15T14:09:30.114Z,13.27
2019-02-15T14:12:03.049Z,12.77
2019-02-15T14:14:34.463Z,14.10
2019-02-15T14:17:06.216Z,12.77
2019-02-15T14:19:37.640Z,11.60
2019-02-15T14:22:09.087Z,11.67
2019-02-15T14:24:40.314Z,10.57
2019-02-15T14:27:12.341Z,11.40
2019-02-15T14:29:43.827Z,11.43
2019-02-15T14:32:15.145Z,10.77
2019-02-15T14:34:46.594Z,9.90
2019-02-15T14:37:17.910Z,10.27
2019-02-15T14:39:49.357Z,9.90
2019-02-15T14:42:20.720Z,9.60
2019-02-15T14:44:52.451Z,9.00
2019-02-15T14:47:23.970Z,9.07
2019-02-15T14:49:55.327Z,8.67
2019-02-15T14:52:26.942Z,8.80
2019-02-15T14:54:58.749Z,8.23
2019-02-15T14:57:30.429Z,7.70
2019-02-15T15:00:01.718Z,8.30
2019-02-15T15:02:33.546Z,9.63
2019-02-15T15:05:05.174Z,10.37
2019-02-15T15:07:36.488Z,10.37
2019-02-15T15:10:08.987Z,10.67
2019-02-15T15:12:40.498Z,8.27
2019-02-15T15:15:13.030Z,10.13
2019-02-15T15:17:44.517Z,7.97
2019-02-15T15:20:15.979Z,8.27
2019-02-15T15:22:47.764Z,7.60
2019-02-15T15:25:19.379Z,7.33
2019-02-15T15:27:51.011Z,7.33
2019-02-15T15:30:22.284Z,6.93
2019-02-15T15:32:53.629Z,7.10
2019-02-15T15:35:25.113Z,7.83
2019-02-15T15:37:56.508Z,7.90
2019-02-15T15:40:28.033Z,8.40
2019-02-15T15:42:59.706Z,8.57
2019-02-15T15:45:31.195Z,9.00
2019-02-15T15:48:02.615Z,9.53
2019-02-15T15:50:34.087Z,9.50
2019-02-15T15:53:07.819Z,10.90
2019-02-15T15:55:38.949Z,11.27
2019-02-15T15:58:10.626Z,11.03
2019-02-15T16:00:42.245Z,11.13
2019-02-15T16:03:13.792Z,11.43
2019-02-15T16:05:45.844Z,11.33
2019-02-15T16:08:17.223Z,11.37
2019-02-15T16:10:48.669Z,12.10
2019-02-15T16:13:20.174Z,12.33
2019-02-15T16:15:52.163Z,11.80
2019-02-15T16:18:31.891Z,11.03
2019-02-15T16:20:56.437Z,10.50
2019-02-15T16:23:27.831Z,11.87
2019-02-15T16:26:00.311Z,11.33
2019-02-15T16:28:31.745Z,11.60
2019-02-15T16:31:03.445Z,11.60
2019-02-15T16:33:34.819Z,11.83
2019-02-15T16:36:06.195Z,11.70
2019-02-15T16:38:37.593Z,11.70
2019-02-15T16:41:08.927Z,11.43
2019-02-15T16:43:40.541Z,11.43
2019-02-15T16:46:11.947Z,11.40
2019-02-15T16:48:43.311Z,10.90
2019-02-15T16:51:14.698Z,10.83
2019-02-15T16:53:45.908Z,11.40
2019-02-15T16:56:17.601Z,11.53
2019-02-15T16:58:49.132Z,10.97
2019-02-15T17:01:20.569Z,10.73
2019-02-15T17:03:52.015Z,11.00
2019-02-15T17:06:23.718Z,10.17
2019-02-15T17:08:55.072Z,9.93
2019-02-15T17:11:26.365Z,10.10
2019-02-15T17:13:57.573Z,9.70
2019-02-15T17:16:28.837Z,9.93
2019-02-15T17:19:00.490Z,10.00
2019-02-15T17:21:31.611Z,9.80
2019-02-15T17:24:03.122Z,8.97
2019-02-15T17:26:34.241Z,10.13
2019-02-15T17:29:05.514Z,9.23
2019-02-15T17:31:36.817Z,8.93
2019-02-15T17:34:07.976Z,8.80
2019-02-15T17:36:39.176Z,9.10
2019-02-15T17:39:10.601Z,9.20
2019-02-15T17:41:41.827Z,9.60
2019-02-15T17:44:12.986Z,9.93
2019-02-15T17:46:44.233Z,9.80
2019-02-15T17:49:15.873Z,10.23
2019-02-15T17:51:47.048Z,9.80
2019-02-15T17:54:18.385Z,9.80
2019-02-15T17:56:49.650Z,9.73
2019-02-15T17:59:20.864Z,9.73
2019-02-15T18:01:52.017Z,9.90
2019-02-15T18:04:23.168Z,10.30
2019-02-15T18:06:54.400Z,10.77
2019-02-15T18:09:25.529Z,10.73
2019-02-15T18:11:56.638Z,11.03
2019-02-15T18:14:28.099Z,11.00
2019-02-15T18:16:59.574Z,11.87
2019-02-15T18:19:30.677Z,12.00
2019-02-15T18:22:03.034Z,13.40
2019-02-15T18:24:34.677Z,13.40
2019-02-15T18:27:05.871Z,13.37
2019-02-15T18:29:37.604Z,13.83
2019-02-15T18:32:09.159Z,14.93
2019-02-15T18:34:40.264Z,15.40
2019-02-15T18:37:11.429Z,15.53
2019-02-15T18:39:42.658Z,15.97
2019-02-15T18:42:13.884Z,15.50
2019-02-15T18:44:45.015Z,14.87
2019-02-15T18:47:16.224Z,15.33
2019-02-15T18:49:47.405Z,15.70
2019-02-15T18:52:18.784Z,15.07
2019-02-15T18:54:49.927Z,15.07
2019-02-15T18:57:21.307Z,16.13
2019-02-15T18:59:52.408Z,15.63
2019-02-15T19:02:23.576Z,18.13
2019-02-15T19:04:54.759Z,17.33
2019-02-15T19:07:26.003Z,17.23
2019-02-15T19:09:57.405Z,17.80
2019-02-15T19:12:29.599Z,18.07
2019-02-15T19:15:00.767Z,17.97
2019-02-15T19:17:32.175Z,17.23
2019-02-15T19:20:03.468Z,17.93
2019-02-15T19:22:35.767Z,17.43
2019-02-15T19:25:08.992Z,18.10
2019-02-15T19:27:40.195Z,18.10
2019-02-15T19:30:15.389Z,18.50
2019-02-15T19:32:46.662Z,17.77
2019-02-15T19:35:17.855Z,18.10
2019-02-15T19:37:48.986Z,19.00
2019-02-15T19:40:20.638Z,19.13
2019-02-15T19:42:53.161Z,18.67
2019-02-15T19:45:24.929Z,18.50
2019-02-15T19:47:58.320Z,17.77
2019-02-15T19:50:30.652Z,20.13
2019-02-15T19:53:02.201Z,20.30
2019-02-15T19:55:33.380Z,19.27
2019-02-15T19:58:04.551Z,18.33
2019-02-15T20:00:36.125Z,19.37
2019-02-15T20:03:07.724Z,19.73
2019-02-15T20:05:38.867Z,18.80
2019-02-15T20:08:11.099Z,18.53
2019-02-15T20:10:43.446Z,18.90
2019-02-15T20:13:14.603Z,19.03
2019-02-15T20:15:45.817Z,19.07
2019-02-15T20:18:17.079Z,19.07
2019-02-15T20:20:48.290Z,18.63
2019-02-15T20:23:19.609Z,20.57
2019-02-15T20:25:50.897Z,19.80
2019-02-15T20:28:22.420Z,18.90
2019-02-15T20:30:53.600Z,19.23
2019-02-15T20:33:25.124Z,19.67
2019-02-15T20:35:56.366Z,18.30
2019-02-15T20:38:27.617Z,19.07
2019-02-15T20:40:58.738Z,18.67
2019-02-15T20:43:29.955Z,18.40
2019-02-15T20:46:01.073Z,19.23
2019-02-15T20:48:32.265Z,19.30
2019-02-15T20:51:03.737Z,18.60
2019-02-15T20:53:35.605Z,19.57
2019-02-15T20:56:07.020Z,19.80
2019-02-15T20:58:38.204Z,19.17
2019-02-15T21:01:09.881Z,20.17
2019-02-15T21:03:41.100Z,20.70
2019-02-15T21:06:12.256Z,19.23
2019-02-15T21:08:43.499Z,19.80
2019-02-15T21:11:14.695Z,19.37
2019-02-15T21:13:45.842Z,20.43
2019-02-15T21:16:17.094Z,19.13
2019-02-15T21:18:48.264Z,18.80
2019-02-15T21:21:19.540Z,18.60
2019-02-15T21:23:50.674Z,19.10
2019-02-15T21:26:21.869Z,18.53
2019-02-15T21:28:53.090Z,19.17
2019-02-15T21:31:24.202Z,19.90
2019-02-15T21:33:55.376Z,19.00
2019-02-15T21:36:26.627Z,20.33
2019-02-15T21:38:58.125Z,19.23
2019-02-15T21:41:29.313Z,19.67
2019-02-15T21:44:01.589Z,19.93
2019-02-15T21:46:32.947Z,18.87
2019-02-15T21:49:04.279Z,20.40
2019-02-15T21:51:35.754Z,20.50
2019-02-15T21:54:06.976Z,19.70
2019-02-15T21:56:38.109Z,20.23
2019-02-15T21:59:09.322Z,20.10
2019-02-15T22:01:41.136Z,19.60
2019-02-15T22:04:12.620Z,19.77
2019-02-15T22:06:43.761Z,19.17
2019-02-15T22:09:15.288Z,18.93
2019-02-15T22:11:46.560Z,18.63
2019-02-15T22:14:17.703Z,19.20
2019-02-15T22:16:49.083Z,19.10
2019-02-15T22:19:20.197Z,19.10
2019-02-15T22:21:51.330Z,18.47
2019-02-15T22:24:22.772Z,19.10
2019-02-15T22:26:54.250Z,19.60
2019-02-15T22:29:25.384Z,18.83
2019-02-15T22:31:56.581Z,18.83
2019-02-15T22:34:27.747Z,17.67
2019-02-15T22:36:59.041Z,18.40
2019-02-15T22:39:30.160Z,18.20
2019-02-15T22:42:01.301Z,17.80
2019-02-15T22:44:32.566Z,18.50
2019-02-15T22:47:03.936Z,18.80
2019-02-15T22:49:43.119Z,18.67
2019-02-15T22:52:07.966Z,18.87
2019-02-15T22:54:39.163Z,18.60
2019-02-15T22:57:10.289Z,18.40
2019-02-15T22:59:41.406Z,18.07
2019-02-15T23:02:13.381Z,19.23
2019-02-15T23:04:44.709Z,18.90
2019-02-15T23:07:16.186Z,17.87
2019-02-15T23:09:47.409Z,19.73
2019-02-15T23:12:18.569Z,18.73
2019-02-15T23:14:49.705Z,16.73
2019-02-15T23:17:21.093Z,17.80
2019-02-15T23:19:52.270Z,18.87
2019-02-15T23:22:23.430Z,18.40
2019-02-15T23:24:54.552Z,19.03
2019-02-15T23:27:25.684Z,18.27
2019-02-15T23:29:57.442Z,18.37
2019-02-15T23:32:29.068Z,17.57
2019-02-15T23:35:00.327Z,17.77
2019-02-15T23:37:31.571Z,18.20
2019-02-15T23:40:03.151Z,17.63
2019-02-15T23:42:34.647Z,16.97
2019-02-15T23:45:06.203Z,16.87
2019-02-15T23:47:37.370Z,16.90
2019-02-15T23:50:09.267Z,17.67
2019-02-15T23:52:40.957Z,17.93
2019-02-15T23:55:12.501Z,17.63
2019-02-15T23:57:43.621Z,18.67
